Time;durP1;ratioP1;P1;durP2;ratioP2;P2;SDS_P1;SDS_P2;PMS_P1;PMS_P2;Temp;Humidity;BMP_temperature;BMP_pressure;BME280_temperature;BME280_humidity;BME280_pressure;Samples;Min_cycle;Max_cycle;Signal;HPM_P1;HPM_P2
2021/11/09 00:00:37;;;;;;;9.57;4.85;;;;;;;4.82;94.49;99492.50;4156886;28;20647;-72
2021/11/09 00:02:39;;;;;;;7.63;4.85;;;;;;;4.81;94.39;99498.31;4157726;28;20037;-72
2021/11/09 00:04:42;;;;;;;8.40;4.78;;;;;;;4.78;94.58;99499.72;4155164;28;20124;-72
2021/11/09 00:06:48;;;;;;;10.15;5.07;;;;;;;4.81;94.20;99493.63;4161541;28;20049;-72
2021/11/09 00:08:57;;;;;;;6.82;4.18;;;;;;;4.83;94.60;99501.53;4157946;28;20183;-72
2021/11/09 00:10:58;;;;;;;8.27;4.90;;;;;;;4.81;94.00;99499.09;4156668;28;20045;-72
2021/11/09 00:13:03;;;;;;;7.03;4.78;;;;;;;4.81;94.42;99495.56;4155952;28;20040;-72
2021/11/09 00:15:08;;;;;;;7.93;4.28;;;;;;;4.79;94.65;99490.38;4157978;28;20721;-72
2021/11/09 00:17:09;;;;;;;11.68;5.57;;;;;;;4.76;95.04;99488.28;4159603;28;20045;-72
2021/11/09 00:19:09;;;;;;;8.95;4.78;;;;;;;4.76;95.19;99493.75;4156283;28;20077;-72
2021/11/09 00:21:09;;;;;;;8.82;4.50;;;;;;;4.72;95.65;99498.25;4156100;28;20037;-72
2021/11/09 00:23:10;;;;;;;9.55;4.78;;;;;;;4.72;95.58;99490.03;4156974;28;20429;-72
2021/11/09 00:25:12;;;;;;;10.15;5.60;;;;;;;4.76;94.22;99496.50;4161391;28;20152;-72
2021/11/09 00:27:12;;;;;;;9.18;4.57;;;;;;;4.76;94.98;99500.03;4156682;28;20045;-72
2021/11/09 00:29:12;;;;;;;8.50;4.35;;;;;;;4.73;94.82;99500.69;4156315;28;20042;-72
2021/11/09 00:31:14;;;;;;;7.93;4.40;;;;;;;4.72;95.18;99501.00;4157025;28;20093;-72
2021/11/09 00:33:14;;;;;;;12.25;4.30;;;;;;;4.72;95.01;99506.47;4154193;28;20485;-72
2021/11/09 00:35:19;;;;;;;8.90;3.90;;;;;;;4.72;95.14;99510.03;4155470;28;20045;-72
2021/11/09 00:37:19;;;;;;;8.13;4.20;;;;;;;4.70;95.29;99512.25;4157374;28;20042;-72
2021/11/09 00:39:19;;;;;;;9.65;4.68;;;;;;;4.72;95.47;99504.56;4156329;28;20444;-72
2021/11/09 00:41:20;;;;;;;9.75;4.32;;;;;;;4.75;94.97;99509.41;4160063;28;20050;-72
2021/11/09 00:43:20;;;;;;;10.00;4.13;;;;;;;4.78;95.44;99507.94;4159104;28;20033;-72
2021/11/09 00:45:22;;;;;;;9.57;5.38;;;;;;;4.79;94.95;99515.03;4157964;28;20040;-72
2021/11/09 00:47:23;;;;;;;8.25;4.20;;;;;;;4.79;94.58;99509.56;4159301;28;20037;-72
2021/11/09 00:49:23;;;;;;;7.32;4.47;;;;;;;4.78;94.81;99506.00;4155487;28;20049;-72
2021/11/09 00:51:24;;;;;;;14.85;5.57;;;;;;;4.79;95.50;99506.81;4156613;28;20471;-72
2021/11/09 00:53:24;;;;;;;10.38;5.60;;;;;;;4.82;95.11;99519.91;4153683;28;20577;-72
2021/11/09 00:55:26;;;;;;;12.23;6.50;;;;;;;4.81;95.85;99523.78;4156175;28;20052;-72
2021/11/09 00:57:27;;;;;;;12.48;5.57;;;;;;;4.79;95.42;99515.84;4155592;28;20044;-71
2021/11/09 00:59:27;;;;;;;11.77;5.63;;;;;;;4.79;95.39;99515.84;4156162;28;20057;-72
2021/11/09 01:01:28;;;;;;;20.98;7.68;;;;;;;4.79;96.12;99515.03;4159961;28;20609;-72
2021/11/09 01:03:29;;;;;;;12.38;6.03;;;;;;;4.78;95.35;99510.69;4155845;28;20053;-72
2021/11/09 01:05:30;;;;;;;16.38;6.40;;;;;;;4.78;95.77;99516.97;4157842;28;20477;-72
2021/11/09 01:07:30;;;;;;;14.05;6.30;;;;;;;4.78;95.25;99510.69;4156074;28;20124;-72
2021/11/09 01:09:31;;;;;;;10.70;5.55;;;;;;;4.79;95.24;99513.13;4156478;28;20076;-72
2021/11/09 01:11:32;;;;;;;8.45;4.70;;;;;;;4.79;95.53;99517.78;4156103;28;20511;-72
2021/11/09 01:13:33;;;;;;;7.28;5.22;;;;;;;4.75;95.58;99516.81;4155550;28;20396;-72
2021/11/09 01:15:35;;;;;;;9.15;4.47;;;;;;;4.72;96.25;99512.78;4158584;28;20238;-72
2021/11/09 01:17:36;;;;;;;8.07;4.85;;;;;;;4.70;96.27;99517.75;4156347;28;20045;-72
2021/11/09 01:19:38;;;;;;;11.27;5.50;;;;;;;4.72;95.46;99525.69;4158370;28;20420;-72
2021/11/09 01:21:40;;;;;;;13.88;5.97;;;;;;;4.78;95.47;99519.72;4156765;28;20517;-72
2021/11/09 01:23:45;;;;;;;19.13;7.75;;;;;;;4.74;96.65;99526.97;4154426;28;20045;-72
2021/11/09 01:25:46;;;;;;;19.35;8.00;;;;;;;4.75;96.64;99527.78;4160295;28;20049;-72
2021/11/09 01:27:47;;;;;;;15.95;7.47;;;;;;;4.73;96.21;99517.13;4156766;28;20052;-72
2021/11/09 01:29:47;;;;;;;14.95;7.03;;;;;;;4.73;95.67;99521.81;4156467;28;20037;-72
2021/11/09 01:31:49;;;;;;;11.55;6.50;;;;;;;4.73;95.80;99530.84;4156733;28;20045;-72
2021/11/09 01:33:50;;;;;;;13.43;5.60;;;;;;;4.77;96.16;99533.75;4155183;28;20566;-72
2021/11/09 01:35:52;;;;;;;9.35;5.40;;;;;;;4.78;96.04;99521.66;4154810;28;20041;-72
2021/11/09 01:37:53;;;;;;;11.95;5.70;;;;;;;4.77;95.97;99528.25;4155970;28;20426;-72
2021/11/09 01:39:53;;;;;;;10.65;6.20;;;;;;;4.76;96.55;99532.13;4156096;28;20260;-72
2021/11/09 01:41:54;;;;;;;14.18;7.43;;;;;;;4.76;95.86;99532.94;4155664;28;20441;-72
2021/11/09 01:43:55;;;;;;;17.65;6.90;;;;;;;4.75;95.47;99525.84;4153785;28;20045;-72
2021/11/09 01:45:56;;;;;;;8.32;5.57;;;;;;;4.76;96.14;99535.69;4156230;28;20565;-72
2021/11/09 01:47:57;;;;;;;12.98;5.80;;;;;;;4.73;96.64;99528.09;4155281;28;20049;-72
2021/11/09 01:49:57;;;;;;;10.40;5.40;;;;;;;4.72;96.15;99531.16;4161042;28;20037;-72
2021/11/09 01:51:58;;;;;;;11.07;5.95;;;;;;;4.72;96.40;99540.19;4155940;28;20169;-72
2021/11/09 01:54:00;;;;;;;9.20;5.30;;;;;;;4.69;96.44;99537.25;4158869;28;20045;-72
2021/11/09 01:56:06;;;;;;;20.20;10.10;;;;;;;4.67;96.76;99542.25;4154047;28;20136;-72
2021/11/09 01:58:08;;;;;;;23.98;11.13;;;;;;;4.66;97.51;99537.88;4155338;28;20891;-72
2021/11/09 02:00:15;;;;;;;33.58;13.52;;;;;;;4.63;96.90;99538.50;4155556;28;20026;-72
2021/11/09 02:02:16;;;;;;;24.73;11.40;;;;;;;4.62;96.96;99534.13;4158885;28;20033;-72
2021/11/09 02:04:16;;;;;;;18.27;7.85;;;;;;;4.64;97.23;99545.63;4156140;28;20631;-72
2021/11/09 02:06:18;;;;;;;17.40;6.82;;;;;;;4.62;97.23;99547.84;4157405;28;20025;-72
2021/11/09 02:08:18;;;;;;;12.60;6.65;;;;;;;4.59;97.74;99545.75;4155909;28;20787;-72
2021/11/09 02:10:23;;;;;;;24.20;8.65;;;;;;;4.56;98.40;99544.44;4162288;28;20033;-72
2021/11/09 02:12:23;;;;;;;16.42;7.15;;;;;;;4.55;98.11;99539.25;4154624;28;20071;-72
2021/11/09 02:14:24;;;;;;;16.55;7.60;;;;;;;4.54;98.57;99548.59;4158959;28;20131;-72
2021/11/09 02:16:25;;;;;;;14.85;6.88;;;;;;;4.53;98.37;99544.22;4154986;28;20037;-72
2021/11/09 02:18:26;;;;;;;27.10;10.43;;;;;;;4.53;97.82;99542.31;4155220;28;20034;-71
2021/11/09 02:20:29;;;;;;;35.63;13.80;;;;;;;4.57;97.60;99556.22;4154816;28;20315;-72
2021/11/09 02:22:29;;;;;;;;;;;;;;;4.59;97.48;99543.00;4157919;28;20037;-72
2021/11/09 02:24:29;;;;;;;27.73;11.52;;;;;;;4.55;97.07;99536.50;4154861;28;19917;-71
2021/11/09 02:26:30;;;;;;;23.75;10.80;;;;;;;4.58;97.13;99539.44;4156308;28;20573;-72
2021/11/09 02:28:31;;;;;;;24.88;9.98;;;;;;;4.59;97.29;99543.00;4155439;28;20366;-72
2021/11/09 02:30:32;;;;;;;29.35;11.18;;;;;;;4.58;97.14;99533.97;4154232;28;20315;-72
2021/11/09 02:32:32;;;;;;;21.85;9.15;;;;;;;4.58;97.65;99533.16;4155032;28;20056;-72
2021/11/09 02:34:33;;;;;;;21.40;9.45;;;;;;;4.57;97.32;99539.75;4153574;28;20120;-72
2021/11/09 02:36:33;;;;;;;26.98;12.35;;;;;;;4.55;97.73;99540.09;4154402;28;20041;-71
2021/11/09 02:38:34;;;;;;;22.58;9.32;;;;;;;4.49;97.93;99533.09;4159294;28;20083;-72
2021/11/09 02:40:35;;;;;;;33.30;13.95;;;;;;;4.55;97.85;99547.47;4154367;28;20068;-72
2021/11/09 02:42:39;;;;;;;23.08;11.32;;;;;;;4.58;97.43;99536.72;4159863;28;20132;-72
2021/11/09 02:44:54;;;;;;;28.08;12.60;;;;;;;4.61;97.49;99536.06;4153228;28;20504;-72
2021/11/09 02:46:58;;;;;;;22.95;11.88;;;;;;;4.61;96.91;99536.06;4154595;28;20041;-72
2021/11/09 02:49:12;;;;;;;22.30;10.25;;;;;;;4.61;97.40;99543.47;4157240;28;20322;-72
2021/11/09 02:51:17;;;;;;;17.52;9.63;;;;;;;4.59;97.78;99548.47;4157578;28;20052;-72
2021/11/09 02:53:37;;;;;;;18.45;9.68;;;;;;;4.55;97.95;99541.97;4154996;28;20033;-72
2021/11/09 02:55:53;;;;;;;16.58;10.27;;;;;;;4.54;97.53;99541.19;4154609;28;20049;-72
2021/11/09 02:58:11;;;;;;;34.25;20.73;;;;;;;4.53;97.95;99549.72;4154266;28;20174;-71
2021/11/09 03:00:22;;;;;;;24.98;15.02;;;;;;;4.53;97.72;99539.56;4160000;28;20514;-72
2021/11/09 03:02:40;;;;;;;22.20;12.10;;;;;;;4.52;97.93;99543.44;4158148;28;20045;-72
2021/11/09 03:05:10;;;;;;;14.27;8.18;;;;;;;4.52;98.61;99546.16;4152923;28;20069;-72
2021/11/09 03:07:22;;;;;;;11.52;5.97;;;;;;;4.49;97.89;99539.38;4154838;28;20444;-72
2021/11/09 03:11:46;;;;;;;10.70;5.55;;;;;;;4.53;97.96;99549.72;4153719;28;20061;-72
2021/11/09 03:13:51;;;;;;;12.77;5.93;;;;;;;4.50;98.40;99545.69;4156531;28;20052;-72
2021/11/09 03:15:52;;;;;;;9.85;5.03;;;;;;;4.49;98.24;99553.09;4153825;28;20081;-72
2021/11/09 03:18:04;;;;;;;9.88;5.43;;;;;;;4.48;98.23;99551.47;4153968;28;20173;-72
2021/11/09 03:20:06;;;;;;;14.43;4.90;;;;;;;4.48;98.05;99556.97;4160365;28;20049;-72
2021/11/09 03:44:13;;;;;;;9.82;4.70;;;;;;;4.35;98.63;99566.03;4157819;28;20521;-72
2021/11/09 03:45:32;;;;;;;9.07;5.10;;;;;;;4.34;98.84;99571.84;4158597;28;20053;-72
2021/11/09 03:47:38;;;;;;;7.35;4.53;;;;;;;4.34;99.35;99575.38;4156672;28;20053;-72
2021/11/09 03:49:39;;;;;;;9.13;4.88;;;;;;;4.38;98.98;99581.03;4161808;28;20045;-72
2021/11/09 03:51:39;;;;;;;9.93;5.00;;;;;;;4.40;98.55;99582.38;4161443;28;20520;-72
2021/11/09 03:53:40;;;;;;;9.05;4.70;;;;;;;4.38;98.67;99578.28;4155588;28;20041;-71
2021/11/09 03:58:08;;;;;;;8.75;4.63;;;;;;;4.35;98.51;99577.00;4157076;28;20389;-72
2021/11/09 04:00:17;;;;;;;10.30;5.18;;;;;;;4.39;98.71;99582.69;4157785;28;20056;-72
2021/11/09 04:02:26;;;;;;;6.88;4.35;;;;;;;4.36;98.62;99573.13;4157336;28;20037;-72
2021/11/09 04:04:41;;;;;;;9.38;4.65;;;;;;;4.34;98.49;99577.31;4159014;28;20435;-72
2021/11/09 04:06:47;;;;;;;6.85;4.22;;;;;;;4.38;97.90;99575.56;4156749;28;20042;-72
2021/11/09 04:17:28;;;;;;;7.47;4.90;;;;;;;4.41;97.39;99588.66;4158942;28;20069;-72
2021/11/09 04:26:27;;;;;;;9.88;4.57;;;;;;;4.44;97.93;99590.75;4135586;28;20375;-72
2021/11/09 04:47:42;;;;;;;7.20;4.05;;;;;;;4.31;98.14;99597.94;4155994;28;20094;-72
2021/11/09 05:09:16;;;;;;;10.18;4.40;;;;;;;4.19;99.62;99622.28;4159807;28;20416;-72
2021/11/09 05:11:17;;;;;;;11.35;4.60;;;;;;;4.16;99.46;99612.78;4160292;28;20068;-72
2021/11/09 05:13:17;;;;;;;7.82;4.53;;;;;;;4.16;99.75;99606.50;4157011;28;20493;-72
2021/11/09 05:15:18;;;;;;;7.35;3.90;;;;;;;4.20;99.97;99626.66;4158102;28;20596;-72
2021/11/09 05:17:18;;;;;;;8.38;4.10;;;;;;;4.18;99.70;99610.53;4157519;28;20045;-72
2021/11/09 05:19:19;;;;;;;8.30;4.10;;;;;;;4.21;98.97;99622.78;4159042;28;20033;-72
2021/11/09 05:21:19;;;;;;;7.85;4.47;;;;;;;4.19;99.24;99614.06;4155990;28;20148;-72
2021/11/09 05:23:20;;;;;;;8.40;4.32;;;;;;;4.23;99.37;99626.88;4157119;28;20590;-72
2021/11/09 05:25:20;;;;;;;8.93;4.65;;;;;;;4.22;99.13;99625.25;4157741;28;20110;-72
2021/11/09 05:27:21;;;;;;;8.30;4.53;;;;;;;4.25;99.26;99636.69;4156831;28;20033;-72
2021/11/09 05:29:21;;;;;;;9.00;4.88;;;;;;;4.28;98.47;99641.56;4157427;28;20091;-72
2021/11/09 05:31:22;;;;;;;8.57;4.45;;;;;;;4.31;98.44;99641.75;4158417;28;20029;-72
2021/11/09 05:33:23;;;;;;;9.35;4.40;;;;;;;4.32;98.43;99635.16;4155437;28;20068;-72
2021/11/09 05:35:23;;;;;;;10.73;5.18;;;;;;;4.37;98.56;99643.25;4157781;28;20037;-72
2021/11/09 05:37:29;;;;;;;12.20;8.52;;;;;;;4.32;98.91;99643.38;4158211;28;20586;-71
2021/11/09 05:39:36;;;;;;;12.05;5.85;;;;;;;4.33;99.02;99649.66;4157527;28;20025;-72
2021/11/09 05:41:38;;;;;;;11.07;6.07;;;;;;;4.30;99.00;99645.59;4157627;28;20401;-72
2021/11/09 05:43:39;;;;;;;10.68;6.70;;;;;;;4.33;98.11;99650.47;4156598;28;20517;-72
2021/11/09 05:45:39;;;;;;;9.77;6.05;;;;;;;4.38;98.37;99660.50;4157427;28;20056;-72
2021/11/09 05:47:40;;;;;;;9.93;5.88;;;;;;;4.40;98.26;99659.09;4156507;28;20503;-71
2021/11/09 05:49:40;;;;;;;7.55;5.35;;;;;;;4.39;98.18;99660.22;4155464;28;20446;-72
2021/11/09 05:51:41;;;;;;;9.20;5.50;;;;;;;4.36;98.18;99657.25;4157312;28;20397;-72
2021/11/09 05:53:41;;;;;;;11.98;5.82;;;;;;;4.37;97.66;99662.44;4160847;28;20041;-72
2021/11/09 05:55:42;;;;;;;10.27;4.70;;;;;;;4.38;98.40;99664.03;4159098;28;20038;-71
2021/11/09 05:57:42;;;;;;;8.40;5.15;;;;;;;4.37;98.35;99662.44;4154759;28;20077;-72
2021/11/09 05:59:43;;;;;;;12.95;4.80;;;;;;;4.38;98.27;99669.53;4157390;28;20038;-72
2021/11/09 06:01:43;;;;;;;8.13;4.85;;;;;;;4.38;98.09;99675.00;4157252;28;20049;-72
2021/11/09 06:03:44;;;;;;;12.32;6.78;;;;;;;4.38;97.62;99674.19;4155910;28;20051;-72
2021/11/09 06:05:44;;;;;;;8.57;6.18;;;;;;;4.37;97.81;99676.13;4158174;28;20120;-72
2021/11/09 06:07:44;;;;;;;8.55;5.57;;;;;;;4.33;98.03;99675.13;4156267;28;20114;-72
2021/11/09 06:09:45;;;;;;;8.32;5.10;;;;;;;4.36;98.50;99676.44;4155322;28;20124;-72
2021/11/09 06:11:45;;;;;;;8.65;4.65;;;;;;;4.34;98.41;99682.22;4154216;28;20821;-72
2021/11/09 06:13:46;;;;;;;8.45;4.93;;;;;;;4.32;98.30;99676.25;4153444;28;20045;-72
2021/11/09 06:15:47;;;;;;;10.10;4.80;;;;;;;4.29;98.95;99682.34;4156115;28;20118;-72
2021/11/09 06:17:47;;;;;;;9.95;5.70;;;;;;;4.28;99.38;99682.66;4152615;28;20037;-72
2021/11/09 06:19:47;;;;;;;9.73;4.35;;;;;;;4.26;99.34;99682.97;4155656;28;20436;-72
2021/11/09 06:21:48;;;;;;;9.05;4.38;;;;;;;4.26;99.18;99685.69;4155936;28;20063;-72
2021/11/09 06:23:50;;;;;;;8.93;4.68;;;;;;;4.25;98.96;99695.03;4155252;28;20092;-72
2021/11/09 06:25:50;;;;;;;10.63;4.30;;;;;;;4.23;99.28;99700.03;4155010;28;20080;-72
2021/11/09 06:27:51;;;;;;;14.82;5.53;;;;;;;4.25;99.64;99702.44;4153452;28;20072;-72
2021/11/09 06:29:52;;;;;;;9.80;5.03;;;;;;;4.27;99.56;99700.22;4155035;28;20068;-72
2021/11/09 06:31:53;;;;;;;8.15;4.60;;;;;;;4.26;99.24;99702.13;4154911;28;20496;-72
2021/11/09 06:33:53;;;;;;;12.68;5.50;;;;;;;4.28;99.09;99708.13;4153903;28;20474;-72
2021/11/09 06:35:53;;;;;;;10.65;7.22;;;;;;;4.30;98.68;99711.34;4154035;28;20390;-72
2021/11/09 06:37:55;;;;;;;19.35;9.50;;;;;;;4.28;99.01;99702.63;4158695;28;20608;-72
2021/11/09 06:39:55;;;;;;;17.42;8.32;;;;;;;4.28;99.05;99710.84;4154887;28;20497;-72
2021/11/09 06:41:56;;;;;;;11.40;5.90;;;;;;;4.27;99.56;99714.72;4153505;28;20049;-72
2021/11/09 06:43:56;;;;;;;9.10;5.18;;;;;;;4.29;99.69;99726.16;4153836;28;20120;-72
2021/11/09 06:45:57;;;;;;;13.13;6.40;;;;;;;4.29;98.67;99725.38;4156507;28;20076;-72
2021/11/09 06:47:57;;;;;;;6.70;4.60;;;;;;;4.30;99.13;99725.06;4161252;28;20528;-71
2021/11/09 06:49:58;;;;;;;8.95;4.10;;;;;;;4.33;98.70;99734.59;4155100;28;20228;-72
2021/11/09 06:51:58;;;;;;;7.72;4.97;;;;;;;4.31;98.61;99728.63;4156272;28;20080;-72
2021/11/09 06:53:59;;;;;;;9.00;4.57;;;;;;;4.32;99.05;99733.00;4154760;28;20045;-72
2021/11/09 06:55:59;;;;;;;6.72;4.25;;;;;;;4.33;98.93;99734.59;4153931;28;20538;-72
2021/11/09 06:58:01;;;;;;;6.50;4.13;;;;;;;4.33;98.59;99737.34;4155032;28;20517;-72
2021/11/09 07:00:06;;;;;;;8.90;5.25;;;;;;;4.37;98.38;99736.41;4154551;28;20053;-72
2021/11/09 07:02:06;;;;;;;5.32;4.18;;;;;;;4.36;98.28;99742.22;4155913;28;20469;-72
2021/11/09 07:04:07;;;;;;;11.40;4.65;;;;;;;4.38;98.14;99748.19;4152985;28;20029;-72
2021/11/09 07:06:07;;;;;;;11.75;6.35;;;;;;;4.36;97.94;99742.22;4154914;28;20038;-72
2021/11/09 07:08:07;;;;;;;10.43;5.30;;;;;;;4.38;98.62;99756.41;4153632;28;20033;-72
2021/11/09 07:10:09;;;;;;;16.25;7.53;;;;;;;4.36;98.68;99744.94;4152969;28;20145;-72
2021/11/09 07:12:09;;;;;;;14.30;6.63;;;;;;;4.42;98.11;99749.22;4157909;28;20033;-72
2021/11/09 07:14:09;;;;;;;11.95;5.82;;;;;;;4.47;97.82;99765.56;4154040;28;20031;-72
2021/11/09 07:16:10;;;;;;;9.40;6.15;;;;;;;4.47;97.64;99760.88;4153321;28;20466;-72
2021/11/09 07:18:11;;;;;;;10.65;5.95;;;;;;;4.53;97.73;99766.25;4158340;28;20889;-72
2021/11/09 07:20:15;;;;;;;9.90;6.65;;;;;;;4.55;97.22;99773.06;4161244;28;20029;-72
2021/11/09 07:22:15;;;;;;;12.18;7.68;;;;;;;4.55;97.57;99772.22;4157225;28;20435;-72
2021/11/09 07:24:16;;;;;;;9.65;6.45;;;;;;;4.55;97.58;99775.81;4156300;28;20418;-71
2021/11/09 07:26:16;;;;;;;8.90;5.72;;;;;;;4.56;97.38;99779.34;4157580;28;20140;-72
2021/11/09 07:28:16;;;;;;;10.60;6.18;;;;;;;4.61;97.42;99787.44;4157975;28;20029;-72
2021/11/09 07:30:17;;;;;;;9.38;5.90;;;;;;;4.64;96.63;99790.41;4157517;28;20122;-72
2021/11/09 07:32:18;;;;;;;10.75;6.18;;;;;;;4.64;96.62;99784.91;4162951;28;20420;-72
2021/11/09 07:34:18;;;;;;;10.10;5.32;;;;;;;4.67;97.12;99787.03;4158764;28;20052;-72
2021/11/09 07:36:20;;;;;;;13.07;6.50;;;;;;;4.71;97.04;99792.69;4158182;28;20653;-72
2021/11/09 07:38:20;;;;;;;8.25;5.45;;;;;;;4.72;96.58;99780.66;4160136;28;20995;-72
2021/11/09 07:40:23;;;;;;;15.00;6.13;;;;;;;4.74;96.65;99781.13;4158086;28;20139;-72
2021/11/09 07:42:23;;;;;;;10.85;5.93;;;;;;;4.82;96.41;99787.84;4156829;28;20132;-72
2021/11/09 07:44:24;;;;;;;19.48;6.45;;;;;;;4.81;96.59;99792.50;4159026;28;20124;-72
2021/11/09 07:46:24;;;;;;;10.48;5.50;;;;;;;4.81;97.52;99792.50;4156932;28;20039;-72
2021/11/09 07:48:25;;;;;;;11.63;5.63;;;;;;;4.79;97.17;99797.47;4157262;28;20045;-72
2021/11/09 07:50:26;;;;;;;10.10;6.13;;;;;;;4.81;97.21;99797.19;4157484;28;20041;-71
2021/11/09 07:52:26;;;;;;;9.13;5.97;;;;;;;4.83;96.97;99800.41;4160894;28;20092;-72
2021/11/09 07:54:32;;;;;;;10.32;5.65;;;;;;;4.82;97.33;99793.31;4160503;28;20160;-72
2021/11/09 07:56:35;;;;;;;11.50;6.38;;;;;;;4.84;97.64;99788.31;4156506;28;20068;-72
2021/11/09 07:58:48;;;;;;;9.25;5.95;;;;;;;4.86;97.38;99792.38;4158749;28;20410;-72
2021/11/09 08:00:51;;;;;;;;;;;;;;;4.90;97.00;99796.13;4160824;28;20111;-72
2021/11/09 08:03:12;;;;;;;8.35;5.60;;;;;;;4.91;97.09;99792.28;4157908;28;19968;-72
2021/11/09 08:05:12;;;;;;;9.05;5.47;;;;;;;4.94;97.18;99799.06;4158521;28;20041;-72
2021/11/09 08:07:17;;;;;;;11.00;5.55;;;;;;;4.93;97.71;99791.97;4155969;28;20394;-72
2021/11/09 08:11:20;;;;;;;11.30;7.65;;;;;;;4.90;97.64;99796.13;4161060;28;20029;-72
2021/11/09 08:13:20;;;;;;;11.85;6.70;;;;;;;4.86;97.26;99800.59;4154707;28;20092;-72
2021/11/09 08:15:21;;;;;;;9.90;5.70;;;;;;;4.84;97.39;99794.63;4157964;28;20178;-71
2021/11/09 08:17:21;;;;;;;10.65;6.47;;;;;;;4.85;97.48;99796.25;4156782;28;20572;-71
2021/11/09 08:19:22;;;;;;;13.45;7.65;;;;;;;4.83;97.56;99798.47;4156603;28;20124;-72
2021/11/09 08:21:22;;;;;;;10.10;6.45;;;;;;;4.82;97.59;99802.34;4156906;28;20057;-72
2021/11/09 08:23:23;;;;;;;9.43;6.57;;;;;;;4.85;97.46;99798.16;4156240;28;20041;-72
2021/11/09 08:25:24;;;;;;;16.88;9.23;;;;;;;4.86;97.96;99799.78;4162657;28;20094;-71
2021/11/09 08:27:24;;;;;;;21.35;13.18;;;;;;;4.90;97.73;99804.38;4160180;28;20650;-72
2021/11/09 08:29:26;;;;;;;23.73;13.57;;;;;;;4.92;98.83;99809.53;4156658;28;20152;-72
2021/11/09 08:31:26;;;;;;;23.80;14.10;;;;;;;4.94;97.82;99808.09;4156300;28;20045;-72
2021/11/09 08:33:28;;;;;;;20.85;12.73;;;;;;;4.93;97.88;99800.19;4155621;28;20099;-72
2021/11/09 08:35:29;;;;;;;20.20;11.32;;;;;;;4.95;98.25;99804.22;4157641;28;20136;-72
2021/11/09 08:37:30;;;;;;;18.92;9.88;;;;;;;4.99;98.38;99804.44;4162341;28;20077;-72
2021/11/09 08:39:36;;;;;;;23.92;13.98;;;;;;;5.01;98.47;99789.28;4159962;28;20322;-72
2021/11/09 08:42:01;;;;;;;17.65;10.07;;;;;;;5.03;97.76;99787.03;4158704;28;20041;-72
2021/11/09 08:44:05;;;;;;;21.52;10.02;;;;;;;5.04;97.56;99790.59;4155429;28;20045;-71
2021/11/09 08:46:30;;;;;;;14.88;9.57;;;;;;;5.06;97.69;99791.94;4155127;28;20473;-71
2021/11/09 08:48:33;;;;;;;13.55;9.82;;;;;;;5.06;97.77;99791.94;4139983;28;20034;-72
2021/11/09 08:50:34;;;;;;;16.13;9.05;;;;;;;5.11;97.77;99792.91;4138819;28;20050;-72
2021/11/09 08:52:35;;;;;;;11.65;7.47;;;;;;;5.11;97.57;99788.25;4140072;28;20108;-72
2021/11/09 08:54:36;;;;;;;15.20;7.90;;;;;;;5.16;98.03;99790.06;4143047;28;20421;-72
2021/11/09 09:04:11;;;;;;;14.25;6.30;;;;;;;5.25;97.39;99788.22;4143519;28;20450;-72
2021/11/09 09:06:04;;;;;;;15.70;8.30;;;;;;;5.41;94.69;99791.41;4161165;28;20440;-72
2021/11/09 09:08:04;;;;;;;16.63;9.30;;;;;;;5.42;95.60;99788.34;4157604;28;20091;-72
2021/11/09 09:10:07;;;;;;;12.55;7.07;;;;;;;5.48;96.26;99789.03;4156551;28;20037;-72
2021/11/09 09:12:08;;;;;;;11.10;7.50;;;;;;;5.49;95.77;99787.91;4155535;28;20313;-72
2021/11/09 09:14:09;;;;;;;14.30;6.95;;;;;;;5.54;96.97;99796.81;4156016;28;20049;-72
2021/11/09 09:16:09;;;;;;;7.65;6.20;;;;;;;5.56;97.17;99794.56;4155849;28;20116;-72
2021/11/09 09:18:11;;;;;;;10.88;5.75;;;;;;;5.59;97.38;99790.38;4155620;28;20063;-72
2021/11/09 09:20:27;;;;;;;15.30;7.43;;;;;;;5.63;96.15;99800.44;4155411;28;20497;-72
2021/11/09 09:22:37;;;;;;;12.63;7.10;;;;;;;5.66;95.67;99800.94;4157938;28;20059;-72
2021/11/09 09:26:50;;;;;;;11.93;6.35;;;;;;;5.73;96.07;99798.56;4155851;28;20428;-72
2021/11/09 09:33:21;;;;;;;13.35;7.55;;;;;;;5.88;95.56;99796.22;4156611;28;20434;-72
2021/11/09 09:56:59;;;;;;;14.98;8.65;;;;;;;6.50;91.64;99805.56;4156527;28;20427;-72
2021/11/09 09:58:52;;;;;;;15.23;9.40;;;;;;;6.49;92.13;99804.75;4152989;28;20056;-72
2021/11/09 10:00:53;;;;;;;13.98;10.30;;;;;;;6.56;93.49;99799.59;4155536;28;20033;-72
2021/11/09 10:02:57;;;;;;;22.17;11.40;;;;;;;6.60;93.75;99802.53;4161255;28;20537;-72
2021/11/09 10:05:07;;;;;;;15.60;9.57;;;;;;;6.66;93.34;99807.56;4161083;28;20061;-72
2021/11/09 10:07:08;;;;;;;12.43;8.18;;;;;;;6.72;93.11;99803.53;4159940;28;20042;-72
2021/11/09 10:09:09;;;;;;;16.77;8.88;;;;;;;6.81;92.64;99802.75;4158696;28;20050;-72
2021/11/09 10:11:33;;;;;;;16.08;7.70;;;;;;;6.91;91.72;99808.75;4155557;28;20308;-72
2021/11/09 10:13:40;;;;;;;12.65;6.80;;;;;;;7.01;89.70;99807.63;4154083;28;20041;-72
2021/11/09 10:15:49;;;;;;;13.60;6.85;;;;;;;7.10;88.68;99813.13;4154990;28;20134;-72
2021/11/09 10:17:53;;;;;;;9.68;5.85;;;;;;;7.10;88.56;99808.44;4157344;28;20278;-72
2021/11/09 10:19:56;;;;;;;9.35;6.53;;;;;;;7.13;87.36;99804.25;4155320;28;20457;-72
2021/11/09 10:21:56;;;;;;;9.65;6.05;;;;;;;7.14;87.90;99800.34;4154000;28;20053;-72
2021/11/09 10:23:56;;;;;;;11.27;6.43;;;;;;;7.16;86.55;99803.59;4155914;28;20079;-72
2021/11/09 10:26:15;;;;;;;11.95;6.00;;;;;;;7.24;86.03;99809.09;4158533;28;20757;-72
2021/11/09 10:28:18;;;;;;;9.15;4.75;;;;;;;7.30;86.03;99805.06;4160365;28;20061;-72
2021/11/09 10:30:38;;;;;;;9.00;5.40;;;;;;;7.37;86.10;99792.75;4160972;28;20033;-72
2021/11/09 10:32:39;;;;;;;8.00;3.97;;;;;;;7.40;84.35;99798.41;4154080;28;20749;-72
2021/11/09 10:34:40;;;;;;;8.32;4.13;;;;;;;7.46;84.68;99799.06;4154773;28;20045;-72
2021/11/09 10:36:40;;;;;;;5.75;3.55;;;;;;;7.49;83.62;99806.66;4155378;28;20044;-72
2021/11/09 10:38:40;;;;;;;8.07;4.53;;;;;;;7.47;85.08;99803.44;4154817;28;20069;-72
2021/11/09 10:40:48;;;;;;;8.18;4.10;;;;;;;7.46;85.04;99799.88;4156796;28;20568;-72
2021/11/09 10:42:52;;;;;;;8.40;3.20;;;;;;;7.50;82.94;99800.03;4155911;28;20038;-72
2021/11/09 10:45:09;;;;;;;7.05;3.65;;;;;;;7.52;82.45;99792.22;4153795;28;20340;-72
2021/11/09 10:47:20;;;;;;;5.32;3.40;;;;;;;7.61;80.90;99798.53;4154606;28;20056;-72
2021/11/09 10:49:48;;;;;;;5.82;3.03;;;;;;;7.64;80.92;99800.66;4154494;28;20068;-72
2021/11/09 10:51:53;;;;;;;7.28;2.88;;;;;;;7.62;80.13;99785.59;4154306;28;20104;-72
2021/11/09 10:53:58;;;;;;;4.38;2.30;;;;;;;7.65;79.30;99787.69;4156919;28;20136;-72
2021/11/09 10:58:52;;;;;;;7.60;2.63;;;;;;;7.73;76.60;99787.69;4157502;28;20068;-72
2021/11/09 11:05:20;;;;;;;5.85;2.60;;;;;;;7.70;78.14;99774.56;4157909;28;20056;-72
2021/11/09 11:07:21;;;;;;;3.97;1.95;;;;;;;7.71;78.23;99780.88;4157421;28;20124;-72
2021/11/09 11:09:22;;;;;;;2.60;1.50;;;;;;;7.71;77.54;99778.94;4160109;28;20414;-72
2021/11/09 11:11:32;;;;;;;4.10;1.83;;;;;;;7.74;78.06;99781.03;4160825;28;20090;-72
2021/11/09 11:13:32;;;;;;;5.47;1.38;;;;;;;7.79;74.40;99783.63;4158543;28;20041;-72
2021/11/09 11:15:32;;;;;;;8.35;4.20;;;;;;;7.81;73.83;99775.81;4157157;28;20041;-72
2021/11/09 11:17:37;;;;;;;7.82;4.88;;;;;;;7.86;72.32;99772.91;4157768;28;20523;-72
2021/11/09 11:19:43;;;;;;;7.25;5.03;;;;;;;7.93;73.43;99774.31;4157324;28;20041;-72
2021/11/09 11:21:43;;;;;;;2.60;1.50;;;;;;;7.95;70.29;99770.13;4159262;28;20038;-72
2021/11/09 11:23:44;;;;;;;1.83;1.50;;;;;;;8.06;69.97;99765.84;4156976;28;20799;-72
2021/11/09 11:25:45;;;;;;;4.50;3.50;;;;;;;8.15;70.39;99776.84;4160214;28;20132;-72
2021/11/09 11:27:46;;;;;;;2.33;1.70;;;;;;;8.20;68.83;99773.13;4158313;28;21004;-72
2021/11/09 11:29:46;;;;;;;3.83;1.60;;;;;;;8.22;68.65;99762.56;4156610;28;20049;-72
2021/11/09 11:31:48;;;;;;;1.45;0.93;;;;;;;8.27;68.10;99771.44;4157578;28;20449;-72
2021/11/09 11:33:50;;;;;;;1.55;1.10;;;;;;;8.26;67.08;99766.25;4156045;28;20041;-72
2021/11/09 11:35:51;;;;;;;2.40;2.20;;;;;;;8.25;67.46;99764.66;4157102;28;20443;-72
2021/11/09 11:37:52;;;;;;;2.15;1.50;;;;;;;8.30;67.00;99764.47;4156781;28;20037;-72
2021/11/09 11:39:57;;;;;;;1.45;0.88;;;;;;;8.33;67.67;99770.13;4157103;28;20045;-72
2021/11/09 11:42:09;;;;;;;3.15;0.90;;;;;;;8.36;65.79;99765.94;4158738;28;20095;-72
2021/11/09 11:44:12;;;;;;;1.50;0.80;;;;;;;8.38;66.26;99753.44;4158161;28;20505;-72
2021/11/09 11:46:15;;;;;;;4.28;1.27;;;;;;;8.46;64.69;99762.00;4157208;28;20259;-72